This is the latest recevied weather packets stored in our database for station/object K4OAM-13. If no packets are shown the sender has not sent any weather packets the latest 10 day(s).
| Time | Temp. | Humidity | Pressure | Rain* | Wind** | Luminosity | Snow |
|---|---|---|---|---|---|---|---|
| 1777984721 | 7.78° C | 91% | 1011 hPa | - | - | - | - |
| 1777984121 | 7.78° C | 92% | 1011.1 hPa | - | - | - | - |
| 1777979338 | 7.78° C | 89% | 1010.4 hPa | - | - | - | - |
| 1777976621 | 7.78° C | 82% | 1010 hPa | - | - | - | - |
| 1777975421 | 8.33° C | 79% | 1009.9 hPa | - | - | - | - |
| 1777973022 | 8.33° C | 78% | 1009.9 hPa | - | - | - | - |
| 1777972453 | 7.78° C | 80% | 1009.9 hPa | - | - | - | - |
| 1777972121 | 8.33° C | 78% | 1009.7 hPa | - | - | - | - |
| 1777971521 | 7.78° C | 79% | 1009.9 hPa | - | - | - | - |
| 1777969722 | 7.78° C | 78% | 1009.9 hPa | - | - | - | - |
| 1777968838 | 8.33° C | 76% | 1009.7 hPa | - | - | - | - |
| 1777968521 | 8.33° C | 76% | 1009.7 hPa | - | - | - | - |
| 1777967638 | 8.33° C | 75% | 1009.8 hPa | - | - | - | - |
| 1777963121 | 7.78° C | 74% | 1010.1 hPa | - | - | - | - |
| 1777962821 | 7.78° C | 74% | 1009.9 hPa | - | - | - | - |
| 1777962521 | 8.33° C | 73% | 1009.8 hPa | - | - | - | - |
| 1777961321 | 7.78° C | 73% | 1009.7 hPa | - | - | - | - |
| 1777958921 | 8.33° C | 70% | 1009.5 hPa | - | - | - | - |
| 1777955921 | 8.33° C | 70% | 1009.1 hPa | - | - | - | - |
| 1777954138 | 8.33° C | 69% | 1009.4 hPa | - | - | - | - |
| 1777952921 | 8.33° C | 68% | 1009.4 hPa | - | - | - | - |
| 1777951722 | 8.33° C | 67% | 1009.4 hPa | - | - | - | - |
| 1777951421 | 8.33° C | 67% | 1009.5 hPa | - | - | - | - |
| 1777950521 | 8.33° C | 66% | 1009.5 hPa | - | - | - | - |
| 1777950224 | 8.33° C | 67% | 1009.6 hPa | - | - | - | - |
* Rain since midnight (hover to see other rain measurements)
** Current wind speed in m/s (hover to see current wind gust speed)